createdAt,value
2022-11-19T00:01:17.951Z,4.96
2022-11-19T00:03:49.875Z,4.81
2022-11-19T00:06:22.654Z,4.73
2022-11-19T00:08:49.807Z,4.50
2022-11-19T00:11:38.057Z,4.60
2022-11-19T00:14:05.057Z,4.57
2022-11-19T00:16:31.652Z,4.49
2022-11-19T00:18:58.262Z,4.39
2022-11-19T00:21:24.803Z,4.39
2022-11-19T00:23:55.001Z,4.29
2022-11-19T00:26:22.577Z,4.28
2022-11-19T00:28:49.234Z,4.25
2022-11-19T00:31:17.138Z,4.28
2022-11-19T00:33:45.505Z,4.26
2022-11-19T00:36:14.790Z,4.11
2022-11-19T00:38:41.811Z,4.34
2022-11-19T00:41:08.668Z,4.17
2022-11-19T00:43:47.693Z,4.31
2022-11-19T00:46:15.367Z,4.29
2022-11-19T00:48:42.318Z,4.28
2022-11-19T00:51:09.472Z,4.25
2022-11-19T00:53:36.749Z,4.17
2022-11-19T00:56:05.417Z,4.08
2022-11-19T00:58:31.911Z,4.05
2022-11-19T01:00:58.475Z,4.28
2022-11-19T01:03:25.432Z,4.31
2022-11-19T01:05:52.203Z,4.34
2022-11-19T01:08:19.533Z,4.36
2022-11-19T01:10:46.164Z,4.30
2022-11-19T01:13:31.464Z,4.29
2022-11-19T01:15:58.128Z,4.28
2022-11-19T01:18:24.815Z,4.24
2022-11-19T01:20:51.305Z,4.31
2022-11-19T01:23:18.635Z,4.37
2022-11-19T01:25:45.392Z,4.26
2022-11-19T01:28:12.245Z,4.19
2022-11-19T01:30:43.372Z,3.92
2022-11-19T01:33:10.508Z,4.06
2022-11-19T01:35:37.680Z,4.12
2022-11-19T01:38:05.058Z,4.16
2022-11-19T01:40:32.247Z,4.12
2022-11-19T01:42:58.905Z,4.02
2022-11-19T01:45:31.073Z,4.04
2022-11-19T01:48:02.583Z,4.00
2022-11-19T01:50:32.907Z,3.65
2022-11-19T01:53:00.611Z,3.67
2022-11-19T01:55:28.130Z,3.47
2022-11-19T01:57:58.753Z,3.49
2022-11-19T02:00:25.152Z,3.47
2022-11-19T02:02:52.089Z,3.34
2022-11-19T02:05:19.164Z,3.44
2022-11-19T02:07:55.822Z,3.30
2022-11-19T02:10:35.579Z,3.32
2022-11-19T02:13:22.301Z,3.30
2022-11-19T02:16:26.277Z,3.22
2022-11-19T02:19:00.428Z,3.23
2022-11-19T02:21:45.635Z,3.28
2022-11-19T02:24:30.267Z,3.14
2022-11-19T02:27:15.120Z,3.27
2022-11-19T02:30:08.461Z,3.23
2022-11-19T02:32:44.349Z,3.18
2022-11-19T02:35:16.401Z,3.21
2022-11-19T02:38:12.407Z,3.18
2022-11-19T02:40:48.734Z,3.04
2022-11-19T02:43:34.925Z,3.17
2022-11-19T02:46:14.905Z,3.07
2022-11-19T02:48:50.193Z,3.08
2022-11-19T02:51:18.548Z,3.06
2022-11-19T02:53:48.160Z,3.01
2022-11-19T02:56:35.338Z,3.02
2022-11-19T02:59:22.099Z,2.99
2022-11-19T03:02:08.573Z,3.01
2022-11-19T03:04:35.419Z,2.95
2022-11-19T03:07:08.668Z,2.98
2022-11-19T03:09:40.587Z,2.81
2022-11-19T03:12:41.222Z,3.02
2022-11-19T03:15:29.663Z,3.04
2022-11-19T03:18:28.155Z,2.89
2022-11-19T03:21:03.769Z,3.01
2022-11-19T03:24:03.101Z,2.99
2022-11-19T03:26:41.510Z,3.03
2022-11-19T03:29:12.444Z,2.85
2022-11-19T03:31:43.010Z,2.95
2022-11-19T03:34:15.636Z,2.83
2022-11-19T03:36:44.352Z,3.00
2022-11-19T03:39:15.073Z,2.88
2022-11-19T03:41:42.354Z,2.92
2022-11-19T03:44:24.286Z,2.89
2022-11-19T03:46:56.049Z,2.82
2022-11-19T03:49:28.659Z,2.90
2022-11-19T03:52:11.754Z,2.92
2022-11-19T03:54:39.746Z,2.88
2022-11-19T03:57:08.491Z,2.81
2022-11-19T03:59:35.112Z,2.78
2022-11-19T04:02:08.244Z,2.73
2022-11-19T04:04:37.834Z,2.66
2022-11-19T04:07:09.236Z,2.60
2022-11-19T04:09:36.001Z,2.37
2022-11-19T04:12:03.291Z,2.60
2022-11-19T04:14:29.873Z,2.49
2022-11-19T04:16:56.487Z,2.32
2022-11-19T04:19:23.142Z,2.64
2022-11-19T04:21:49.782Z,2.65
2022-11-19T04:24:16.804Z,2.57
2022-11-19T04:26:43.392Z,2.50
2022-11-19T04:29:09.993Z,2.52
2022-11-19T04:31:36.790Z,2.56
2022-11-19T04:34:03.317Z,2.58
2022-11-19T04:36:30.017Z,2.55
2022-11-19T04:38:56.542Z,2.64
2022-11-19T04:41:23.324Z,2.68
2022-11-19T04:43:49.876Z,2.63
2022-11-19T04:46:16.542Z,2.50
2022-11-19T04:48:43.079Z,2.57
2022-11-19T04:51:09.665Z,2.46
2022-11-19T04:53:36.330Z,2.51
2022-11-19T04:56:02.887Z,2.50
2022-11-19T04:58:29.504Z,2.46
2022-11-19T05:00:56.074Z,2.30
2022-11-19T05:03:22.811Z,2.55
2022-11-19T05:05:49.914Z,2.52
2022-11-19T05:08:16.446Z,2.22
2022-11-19T05:10:44.717Z,2.58
2022-11-19T05:13:11.380Z,2.59
2022-11-19T05:15:37.874Z,2.53
2022-11-19T05:18:04.615Z,2.58
2022-11-19T05:20:31.423Z,2.51
2022-11-19T05:22:58.323Z,2.45
2022-11-19T05:25:24.857Z,2.34
2022-11-19T05:27:51.735Z,2.49
2022-11-19T05:30:18.419Z,2.44
2022-11-19T05:32:45.115Z,2.20
2022-11-19T05:35:11.572Z,2.27
2022-11-19T05:37:38.241Z,2.04
2022-11-19T05:40:05.259Z,2.23
2022-11-19T05:42:31.727Z,2.21
2022-11-19T05:44:58.322Z,2.17
2022-11-19T05:47:24.852Z,2.15
2022-11-19T05:49:51.482Z,2.19
2022-11-19T05:52:18.049Z,2.09
2022-11-19T05:54:44.602Z,1.96
2022-11-19T05:57:11.146Z,1.84
2022-11-19T05:59:43.480Z,2.01
2022-11-19T06:02:10.759Z,1.94
2022-11-19T06:04:38.216Z,1.97
2022-11-19T06:07:05.089Z,2.03
2022-11-19T06:09:32.516Z,1.83
2022-11-19T06:11:59.090Z,1.75
2022-11-19T06:14:27.391Z,1.94
2022-11-19T06:16:59.312Z,1.76
2022-11-19T06:19:26.538Z,1.90
2022-11-19T06:21:53.678Z,1.70
2022-11-19T06:24:20.846Z,1.85
2022-11-19T06:26:47.431Z,1.64
2022-11-19T06:29:15.736Z,1.93
2022-11-19T06:31:42.318Z,1.84
2022-11-19T06:34:09.429Z,1.68
2022-11-19T06:36:41.794Z,1.88
2022-11-19T06:39:10.463Z,1.88
2022-11-19T06:41:37.223Z,1.87
2022-11-19T06:44:04.088Z,1.87
2022-11-19T06:46:30.697Z,1.90
2022-11-19T06:48:57.383Z,1.79
2022-11-19T06:51:24.737Z,1.77
2022-11-19T06:53:51.326Z,1.65
2022-11-19T06:56:17.802Z,1.59
2022-11-19T06:58:44.297Z,1.56
2022-11-19T07:01:10.866Z,1.58
2022-11-19T07:03:37.369Z,1.55
2022-11-19T07:06:04.935Z,1.30
2022-11-19T07:08:34.884Z,1.53
2022-11-19T07:11:22.389Z,1.34
2022-11-19T07:13:58.463Z,1.57
2022-11-19T07:16:30.640Z,1.65
2022-11-19T07:18:59.405Z,1.53
2022-11-19T07:21:26.851Z,1.72
2022-11-19T07:23:54.369Z,1.73
2022-11-19T07:26:21.046Z,1.71
2022-11-19T07:28:47.564Z,1.68
2022-11-19T07:31:14.199Z,1.74
2022-11-19T07:33:41.096Z,1.74
2022-11-19T07:36:15.330Z,1.47
2022-11-19T07:38:44.645Z,1.70
2022-11-19T07:41:29.720Z,1.65
2022-11-19T07:43:56.323Z,1.64
2022-11-19T07:46:23.292Z,1.58
2022-11-19T07:48:54.428Z,1.54
2022-11-19T07:51:21.878Z,1.54
2022-11-19T07:53:49.588Z,1.55
2022-11-19T07:56:16.631Z,1.53
2022-11-19T07:58:43.123Z,1.37
2022-11-19T08:01:11.837Z,1.58
2022-11-19T08:03:38.413Z,1.58
2022-11-19T08:06:06.447Z,1.61
2022-11-19T08:08:33.285Z,1.63
2022-11-19T08:11:07.265Z,1.42
2022-11-19T08:13:34.186Z,1.65
2022-11-19T08:16:02.311Z,1.68
2022-11-19T08:18:31.328Z,1.67
2022-11-19T08:21:05.311Z,1.70
2022-11-19T08:23:32.822Z,1.73
2022-11-19T08:26:00.034Z,1.73
2022-11-19T08:28:27.526Z,1.73
2022-11-19T08:30:54.396Z,1.49
2022-11-19T08:33:20.935Z,1.50
2022-11-19T08:35:47.459Z,1.65
2022-11-19T08:38:14.037Z,1.74
2022-11-19T08:40:40.594Z,1.83
2022-11-19T08:43:07.083Z,1.79
2022-11-19T08:45:38.015Z,1.81
2022-11-19T08:48:10.637Z,1.80
2022-11-19T08:50:37.554Z,1.82
2022-11-19T08:53:06.188Z,1.84
2022-11-19T08:55:32.962Z,1.85
2022-11-19T08:58:04.334Z,1.83
2022-11-19T09:00:32.876Z,1.60
2022-11-19T09:02:59.445Z,1.82
2022-11-19T09:05:26.594Z,1.85
2022-11-19T09:07:54.976Z,1.74
2022-11-19T09:10:21.600Z,1.83
2022-11-19T09:12:49.393Z,1.70
2022-11-19T09:15:16.111Z,1.80
2022-11-19T09:17:46.780Z,1.75
2022-11-19T09:20:14.038Z,1.82
2022-11-19T09:22:40.911Z,1.78
2022-11-19T09:25:09.008Z,1.73
2022-11-19T09:27:36.934Z,1.75
2022-11-19T09:30:05.723Z,1.85
2022-11-19T09:32:33.034Z,1.85
2022-11-19T09:34:59.575Z,1.92
2022-11-19T09:37:26.180Z,1.94
2022-11-19T09:39:52.746Z,1.92
2022-11-19T09:42:50.614Z,1.94
2022-11-19T09:46:03.856Z,1.93
2022-11-19T09:48:37.106Z,1.94
2022-11-19T09:51:19.983Z,1.87
2022-11-19T09:53:58.017Z,1.84
2022-11-19T09:56:54.379Z,1.92
2022-11-19T09:59:24.327Z,1.92
2022-11-19T10:01:51.482Z,1.97
2022-11-19T10:04:31.694Z,2.05
2022-11-19T10:07:36.045Z,2.05
2022-11-19T10:10:28.099Z,1.88
2022-11-19T10:13:15.711Z,1.83
2022-11-19T10:15:48.459Z,1.80
2022-11-19T10:18:41.211Z,1.84
2022-11-19T10:21:22.270Z,1.74
2022-11-19T10:24:10.478Z,1.79
2022-11-19T10:26:40.806Z,1.75
2022-11-19T10:29:21.974Z,1.71
2022-11-19T10:31:50.921Z,1.78
2022-11-19T10:34:33.356Z,1.88
2022-11-19T10:37:11.551Z,1.88
2022-11-19T10:39:53.522Z,1.83
2022-11-19T10:42:28.826Z,1.76
2022-11-19T10:45:05.043Z,1.85
2022-11-19T10:47:41.176Z,1.89
2022-11-19T10:50:15.354Z,1.94
2022-11-19T10:52:47.426Z,1.98
2022-11-19T10:55:32.736Z,1.98
2022-11-19T10:58:08.300Z,1.82
2022-11-19T11:00:37.375Z,2.01
2022-11-19T11:03:06.691Z,1.99
2022-11-19T11:05:55.699Z,1.88
2022-11-19T11:08:22.523Z,2.09
2022-11-19T11:10:51.019Z,2.07
2022-11-19T11:13:54.309Z,1.98
2022-11-19T11:16:38.883Z,1.95
2022-11-19T11:19:14.635Z,1.92
2022-11-19T11:21:43.719Z,1.89
2022-11-19T11:24:14.543Z,1.91
2022-11-19T11:26:41.538Z,1.94
2022-11-19T11:29:13.930Z,2.00
2022-11-19T11:31:43.228Z,1.79
2022-11-19T11:34:26.213Z,2.09
2022-11-19T11:36:53.894Z,2.05
2022-11-19T11:39:40.934Z,2.16
2022-11-19T11:42:17.556Z,2.17
2022-11-19T11:44:57.413Z,2.23
2022-11-19T11:47:30.761Z,2.25
2022-11-19T11:50:08.897Z,2.28
2022-11-19T11:52:35.552Z,2.33
2022-11-19T11:55:08.376Z,2.26
2022-11-19T11:57:37.443Z,2.22
2022-11-19T12:00:29.717Z,2.21
2022-11-19T12:03:14.869Z,2.19
2022-11-19T12:06:03.164Z,2.20
2022-11-19T12:08:52.484Z,2.19
2022-11-19T12:11:57.320Z,2.21
2022-11-19T12:14:44.859Z,1.96
2022-11-19T12:17:40.068Z,2.06
2022-11-19T12:20:18.813Z,2.04
2022-11-19T12:23:00.444Z,2.07
2022-11-19T12:25:51.930Z,2.13
2022-11-19T12:28:48.424Z,2.14
2022-11-19T12:31:52.543Z,2.16
2022-11-19T12:34:25.018Z,2.18
2022-11-19T12:37:08.300Z,2.18
2022-11-19T12:39:53.669Z,2.03
2022-11-19T12:42:48.259Z,2.29
2022-11-19T12:45:42.119Z,2.39
2022-11-19T12:48:23.859Z,2.40
2022-11-19T12:50:59.354Z,2.45
2022-11-19T12:53:49.423Z,2.44
2022-11-19T12:56:27.754Z,2.49
2022-11-19T12:58:59.451Z,2.54
2022-11-19T13:01:30.906Z,2.55
2022-11-19T13:04:22.623Z,2.51
2022-11-19T13:06:57.843Z,2.44
2022-11-19T13:10:00.516Z,2.41
2022-11-19T13:12:40.503Z,2.32
2022-11-19T13:15:34.164Z,2.46
2022-11-19T13:18:04.754Z,2.43
2022-11-19T13:20:44.070Z,2.18
2022-11-19T13:23:19.519Z,2.48
2022-11-19T13:26:01.900Z,2.55
2022-11-19T13:28:45.633Z,2.58
2022-11-19T13:31:38.883Z,2.42
2022-11-19T13:34:18.758Z,2.38
2022-11-19T13:36:57.846Z,2.37
2022-11-19T13:39:35.804Z,2.40
2022-11-19T13:42:24.822Z,2.38
2022-11-19T13:44:52.061Z,2.45
2022-11-19T13:47:28.945Z,2.45
2022-11-19T13:50:03.602Z,2.40
2022-11-19T13:52:32.203Z,2.41
2022-11-19T13:55:00.180Z,2.45
2022-11-19T13:57:37.205Z,2.50
2022-11-19T14:00:29.308Z,2.49
2022-11-19T14:03:20.546Z,2.26
2022-11-19T14:06:04.972Z,2.39
2022-11-19T14:08:52.867Z,2.39
2022-11-19T14:11:28.445Z,2.40
2022-11-19T14:14:32.409Z,2.40
2022-11-19T14:17:48.939Z,2.41
2022-11-19T14:20:53.896Z,2.42
2022-11-19T14:24:08.413Z,2.38
2022-11-19T14:26:40.800Z,2.33
2022-11-19T14:29:25.804Z,2.21
2022-11-19T14:32:02.699Z,2.33
2022-11-19T14:34:31.969Z,2.16
2022-11-19T14:37:03.398Z,2.35
2022-11-19T14:39:41.337Z,2.16
2022-11-19T14:42:20.163Z,2.36
2022-11-19T14:45:06.526Z,2.39
2022-11-19T14:47:39.405Z,2.29
2022-11-19T14:50:21.208Z,2.43
2022-11-19T14:52:57.544Z,2.43
2022-11-19T14:55:26.857Z,2.49
2022-11-19T14:58:19.560Z,2.46
2022-11-19T15:00:46.416Z,2.43
2022-11-19T15:03:21.325Z,2.42
2022-11-19T15:05:48.360Z,2.45
2022-11-19T15:08:17.991Z,2.47
2022-11-19T15:10:49.132Z,2.40
2022-11-19T15:13:40.215Z,2.34
2022-11-19T15:16:10.176Z,2.35
2022-11-19T15:18:39.865Z,2.37
2022-11-19T15:21:06.351Z,2.41
2022-11-19T15:23:59.321Z,2.26
2022-11-19T15:26:50.461Z,2.26
2022-11-19T15:29:36.066Z,2.20
2022-11-19T15:32:41.001Z,2.22
2022-11-19T15:35:32.039Z,2.33
2022-11-19T15:38:25.018Z,2.24
2022-11-19T15:40:54.892Z,2.22
2022-11-19T15:43:45.613Z,2.19
2022-11-19T15:46:18.565Z,2.17
2022-11-19T15:49:00.188Z,1.95
2022-11-19T15:51:26.812Z,2.14
2022-11-19T15:54:01.694Z,2.06
2022-11-19T15:56:32.700Z,2.20
2022-11-19T15:59:01.425Z,2.25
2022-11-19T16:01:29.338Z,2.16
2022-11-19T16:04:11.092Z,2.09
2022-11-19T16:06:44.995Z,2.07
2022-11-19T16:09:26.057Z,2.05
2022-11-19T16:12:16.870Z,2.03
2022-11-19T16:15:11.403Z,2.02
2022-11-19T16:17:49.912Z,2.04
2022-11-19T16:20:20.602Z,2.09
2022-11-19T16:22:49.785Z,2.07
2022-11-19T16:25:44.199Z,2.03
2022-11-19T16:28:14.150Z,2.01
2022-11-19T16:30:46.591Z,2.05
2022-11-19T16:33:17.107Z,2.07
2022-11-19T16:35:48.329Z,1.94
2022-11-19T16:38:25.740Z,2.04
2022-11-19T16:41:23.007Z,1.99
2022-11-19T16:43:50.230Z,1.90
2022-11-19T16:46:21.684Z,1.85
2022-11-19T16:48:48.235Z,1.71
2022-11-19T16:51:26.764Z,1.84
2022-11-19T16:53:53.477Z,1.91
2022-11-19T16:56:20.056Z,1.92
2022-11-19T16:58:46.991Z,1.81
2022-11-19T17:01:17.933Z,1.85
2022-11-19T17:03:45.233Z,1.68
2022-11-19T17:06:26.295Z,1.81
2022-11-19T17:08:58.416Z,1.86
2022-11-19T17:12:06.774Z,1.89
2022-11-19T17:14:36.129Z,1.89
2022-11-19T17:17:03.711Z,1.84
2022-11-19T17:19:35.486Z,1.64
2022-11-19T17:22:14.271Z,1.76
2022-11-19T17:24:43.349Z,1.54
2022-11-19T17:27:21.846Z,1.73
2022-11-19T17:29:48.682Z,1.68
2022-11-19T17:32:15.426Z,1.68
2022-11-19T17:34:49.237Z,1.73
2022-11-19T17:37:15.788Z,1.75
2022-11-19T17:39:42.379Z,1.72
2022-11-19T17:42:28.098Z,1.66
2022-11-19T17:44:54.716Z,1.70
2022-11-19T17:47:23.756Z,1.79
2022-11-19T17:49:51.863Z,1.78
2022-11-19T17:52:31.528Z,1.79
2022-11-19T17:55:11.144Z,1.72
2022-11-19T17:57:42.372Z,1.68
2022-11-19T18:00:11.629Z,1.79
2022-11-19T18:02:39.212Z,1.78
2022-11-19T18:05:15.729Z,1.77
2022-11-19T18:07:42.328Z,1.76
2022-11-19T18:10:09.460Z,1.80
2022-11-19T18:12:36.028Z,1.77
2022-11-19T18:15:02.641Z,1.81
2022-11-19T18:17:29.214Z,1.80
2022-11-19T18:19:55.824Z,1.66
2022-11-19T18:22:22.504Z,1.77
2022-11-19T18:24:50.477Z,1.77
2022-11-19T18:27:17.711Z,1.64
2022-11-19T18:29:44.410Z,1.56
2022-11-19T18:32:12.253Z,1.62
2022-11-19T18:34:38.776Z,1.65
2022-11-19T18:37:05.364Z,1.61
2022-11-19T18:39:31.874Z,1.65
2022-11-19T18:41:58.407Z,1.61
2022-11-19T18:44:34.150Z,1.62
2022-11-19T18:47:01.492Z,1.65
2022-11-19T18:49:28.247Z,1.64
2022-11-19T18:51:55.405Z,1.61
2022-11-19T18:54:22.343Z,1.64
2022-11-19T18:56:48.887Z,1.55
2022-11-19T18:59:15.528Z,1.50
2022-11-19T19:01:42.213Z,1.59
2022-11-19T19:04:13.942Z,1.55
2022-11-19T19:06:41.649Z,1.51
2022-11-19T19:09:08.245Z,1.60
2022-11-19T19:11:52.976Z,1.59
2022-11-19T19:14:19.810Z,1.57
2022-11-19T19:16:46.652Z,1.52
2022-11-19T19:19:17.343Z,1.53
2022-11-19T19:21:43.775Z,1.57
2022-11-19T19:24:10.382Z,1.53
2022-11-19T19:26:38.164Z,1.54
2022-11-19T19:29:06.002Z,1.56
2022-11-19T19:31:33.026Z,1.54
2022-11-19T19:34:01.121Z,1.52
2022-11-19T19:36:28.038Z,1.31
2022-11-19T19:38:54.865Z,1.45
2022-11-19T19:41:23.554Z,1.50
2022-11-19T19:43:50.510Z,1.49
2022-11-19T19:46:20.105Z,1.34
2022-11-19T19:48:48.970Z,1.43
2022-11-19T19:51:16.711Z,1.51
2022-11-19T19:53:43.859Z,1.52
2022-11-19T19:56:13.661Z,1.55
2022-11-19T19:58:43.721Z,1.62
2022-11-19T20:01:31.494Z,1.60
2022-11-19T20:04:09.157Z,1.59
2022-11-19T20:06:37.856Z,1.53
2022-11-19T20:09:08.802Z,1.34
2022-11-19T20:11:48.535Z,1.36
2022-11-19T20:14:15.451Z,1.42
2022-11-19T20:16:42.153Z,1.36
2022-11-19T20:19:13.459Z,1.12
2022-11-19T20:21:40.401Z,1.26
2022-11-19T20:24:12.145Z,1.22
2022-11-19T20:26:40.964Z,1.04
2022-11-19T20:29:09.215Z,1.29
2022-11-19T20:31:35.922Z,1.24
2022-11-19T20:34:05.158Z,1.20
2022-11-19T20:36:34.394Z,1.14
2022-11-19T20:39:01.589Z,1.09
2022-11-19T20:41:47.585Z,1.11
2022-11-19T20:44:22.324Z,1.10
2022-11-19T20:47:00.628Z,0.93
2022-11-19T20:49:29.406Z,1.09
2022-11-19T20:51:56.862Z,1.14
2022-11-19T20:54:24.680Z,1.20
2022-11-19T20:56:53.063Z,1.19
2022-11-19T20:59:20.639Z,1.11
2022-11-19T21:01:51.569Z,1.09
2022-11-19T21:04:18.553Z,1.28
2022-11-19T21:06:45.552Z,1.14
2022-11-19T21:09:12.565Z,1.22
2022-11-19T21:11:39.174Z,1.21
2022-11-19T21:14:07.431Z,1.01
2022-11-19T21:16:34.008Z,1.27
2022-11-19T21:19:00.747Z,1.24
2022-11-19T21:21:27.665Z,1.12
2022-11-19T21:23:54.553Z,1.12
2022-11-19T21:26:23.353Z,1.30
2022-11-19T21:28:53.222Z,1.40
2022-11-19T21:31:23.393Z,1.37
2022-11-19T21:33:49.921Z,1.28
2022-11-19T21:36:16.575Z,1.31
2022-11-19T21:38:43.255Z,1.33
2022-11-19T21:41:09.880Z,1.22
2022-11-19T21:43:37.132Z,1.37
2022-11-19T21:46:07.317Z,1.35
2022-11-19T21:48:33.961Z,1.30
2022-11-19T21:51:05.944Z,1.17
2022-11-19T21:53:32.505Z,1.32
2022-11-19T21:55:59.091Z,1.32
2022-11-19T21:58:25.627Z,1.36
2022-11-19T22:00:57.605Z,1.33
2022-11-19T22:03:24.155Z,1.30
2022-11-19T22:06:11.293Z,1.27
2022-11-19T22:08:39.893Z,1.26
2022-11-19T22:11:26.616Z,1.23
2022-11-19T22:13:55.463Z,1.24
2022-11-19T22:16:22.638Z,1.28
2022-11-19T22:18:49.243Z,1.17
2022-11-19T22:21:16.156Z,1.16
2022-11-19T22:23:42.740Z,1.40
2022-11-19T22:26:11.803Z,1.40
2022-11-19T22:28:38.378Z,1.41
2022-11-19T22:31:05.807Z,1.37
2022-11-19T22:33:35.153Z,1.35
2022-11-19T22:36:09.238Z,1.32
2022-11-19T22:38:36.385Z,1.34
2022-11-19T22:41:08.772Z,1.33
2022-11-19T22:43:36.502Z,1.32
2022-11-19T22:46:03.842Z,1.28
2022-11-19T22:48:32.150Z,1.34
2022-11-19T22:50:59.172Z,1.45
2022-11-19T22:53:25.840Z,1.46
2022-11-19T22:55:52.578Z,1.36
2022-11-19T22:58:19.112Z,1.37
2022-11-19T23:00:48.582Z,1.35
2022-11-19T23:03:15.538Z,1.32
2022-11-19T23:05:46.700Z,1.30
2022-11-19T23:08:13.316Z,1.30
2022-11-19T23:10:39.901Z,1.33
2022-11-19T23:13:24.966Z,1.33
2022-11-19T23:16:12.167Z,1.36
2022-11-19T23:18:41.895Z,1.35
2022-11-19T23:21:13.802Z,1.40
2022-11-19T23:23:40.885Z,1.37
2022-11-19T23:26:09.350Z,1.17
2022-11-19T23:28:37.341Z,1.33
2022-11-19T23:31:15.765Z,1.42
2022-11-19T23:33:42.866Z,1.45
2022-11-19T23:36:15.458Z,1.52
2022-11-19T23:38:42.520Z,1.49
2022-11-19T23:41:11.408Z,1.52
2022-11-19T23:43:41.839Z,1.49
2022-11-19T23:46:21.721Z,1.33
2022-11-19T23:48:49.437Z,1.41
2022-11-19T23:51:20.133Z,1.42
2022-11-19T23:53:47.006Z,1.41
2022-11-19T23:56:15.442Z,1.37
2022-11-19T23:58:42.753Z,1.46
